Time;durP1;ratioP1;P1;durP2;ratioP2;P2;SDS_P1;SDS_P2;PMS_P1;PMS_P2;Temp;Humidity;BMP_temperature;BMP_pressure;BME280_temperature;BME280_humidity;BME280_pressure;Samples;Min_cycle;Max_cycle;Signal;HPM_P1;HPM_P2
2023/09/02 00:00:52;;;;;;;78.37;47.87;;;;;;;;;;5021934;28;20195;-76
2023/09/02 00:03:18;;;;;;;65.50;45.37;;;;;;;;;;5039082;28;20188;-75
2023/09/02 00:05:44;;;;;;;68.10;46.63;;;;;;;;;;5021890;28;20208;-75
2023/09/02 00:08:10;;;;;;;62.60;46.37;;;;;;;;;;5055740;28;20215;-76
2023/09/02 00:10:36;;;;;;;66.30;45.37;;;;;;;;;;5038350;28;20180;-75
2023/09/02 00:13:03;;;;;;;70.63;44.97;;;;;;;;;;5022576;28;20185;-75
2023/09/02 00:15:29;;;;;;;65.37;45.07;;;;;;;;;;5038774;28;20176;-75
2023/09/02 00:17:55;;;;;;;65.90;45.10;;;;;;;;;;5038209;28;20191;-75
2023/09/02 00:20:21;;;;;;;63.73;44.23;;;;;;;;;;5021608;28;20195;-75
2023/09/02 00:22:47;;;;;;;61.67;43.27;;;;;;;;;;5021694;28;20206;-76
2023/09/02 00:25:13;;;;;;;59.17;43.63;;;;;;;;;;5038627;28;20210;-75
2023/09/02 00:27:39;;;;;;;55.50;41.17;;;;;;;;;;5017967;28;20236;-75
2023/09/02 00:30:05;;;;;;;64.90;42.77;;;;;;;;;;4999890;28;20257;-75
2023/09/02 00:32:33;;;;;;;56.90;42.63;;;;;;;;;;5023920;28;20192;-75
2023/09/02 00:34:59;;;;;;;58.93;42.93;;;;;;;;;;5004300;28;20212;-75
2023/09/02 00:37:25;;;;;;;64.00;44.00;;;;;;;;;;5001747;28;20227;-76
2023/09/02 00:39:51;;;;;;;66.00;45.23;;;;;;;;;;5014565;28;20202;-76
2023/09/02 00:42:19;;;;;;;65.43;44.23;;;;;;;;;;5015177;28;20185;-76
2023/09/02 00:44:45;;;;;;;61.83;42.80;;;;;;;;;;5014479;28;20186;-76
2023/09/02 00:47:11;;;;;;;67.13;43.00;;;;;;;;;;5021220;28;20276;-76
2023/09/02 00:49:37;;;;;;;67.30;41.80;;;;;;;;;;5024667;28;20217;-76
2023/09/02 00:52:03;;;;;;;61.63;41.93;;;;;;;;;;4998412;28;20331;-76
2023/09/02 00:54:31;;;;;;;65.47;39.00;;;;;;;;;;5015661;28;20211;-78
2023/09/02 00:56:57;;;;;;;58.17;40.53;;;;;;;;;;5013873;28;20197;-78
2023/09/02 00:59:23;;;;;;;53.87;38.43;;;;;;;;;;5014157;28;20263;-76
2023/09/02 01:01:49;;;;;;;60.17;38.07;;;;;;;;;;5001881;28;20197;-75
2023/09/02 01:04:15;;;;;;;54.40;38.73;;;;;;;;;;5022598;28;20196;-75
2023/09/02 01:06:41;;;;;;;51.63;36.03;;;;;;;;;;5033924;28;20208;-76
2023/09/02 01:09:07;;;;;;;53.13;37.80;;;;;;;;;;5009159;28;20181;-78
2023/09/02 01:11:35;;;;;;;52.97;36.67;;;;;;;;;;5025537;28;20204;-78
2023/09/02 01:14:01;;;;;;;47.23;35.67;;;;;;;;;;5025995;28;20184;-78
2023/09/02 01:16:27;;;;;;;52.20;36.10;;;;;;;;;;5029564;28;20197;-78
2023/09/02 01:18:53;;;;;;;47.50;35.10;;;;;;;;;;5014169;28;20193;-78
2023/09/02 01:21:19;;;;;;;54.67;36.50;;;;;;;;;;5018858;28;20189;-77
2023/09/02 01:23:48;;;;;;;53.17;35.77;;;;;;;;;;5029005;28;20199;-76
2023/09/02 01:26:23;;;;;;;53.50;36.30;;;;;;;;;;5031515;28;20227;-76
2023/09/02 01:28:50;;;;;;;51.67;36.83;;;;;;;;;;5052033;28;20176;-75
2023/09/02 01:31:17;;;;;;;56.27;36.40;;;;;;;;;;5043640;28;20249;-75
2023/09/02 01:33:43;;;;;;;48.30;34.83;;;;;;;;;;5046389;28;20177;-76
2023/09/02 01:36:12;;;;;;;48.43;34.60;;;;;;;;;;5042992;28;20177;-75
2023/09/02 01:38:40;;;;;;;51.67;34.80;;;;;;;;;;5027221;28;20183;-75
2023/09/02 01:41:07;;;;;;;49.13;33.97;;;;;;;;;;5036310;28;20221;-75
2023/09/02 01:43:34;;;;;;;57.03;36.43;;;;;;;;;;5036363;28;20261;-76
2023/09/02 01:46:00;;;;;;;62.40;37.47;;;;;;;;;;5030907;28;20228;-76
2023/09/02 01:48:27;;;;;;;55.97;37.07;;;;;;;;;;5012449;28;20211;-76
2023/09/02 01:50:53;;;;;;;60.10;36.43;;;;;;;;;;5047263;28;20190;-76
2023/09/02 01:53:19;;;;;;;56.40;36.90;;;;;;;;;;5028819;28;20264;-76
2023/09/02 01:55:46;;;;;;;62.30;37.73;;;;;;;;;;5008005;28;20188;-76
2023/09/02 01:58:12;;;;;;;54.63;37.13;;;;;;;;;;5029592;28;20195;-76
2023/09/02 02:00:39;;;;;;;54.43;36.47;;;;;;;;;;5032050;28;20237;-78
2023/09/02 02:03:08;;;;;;;58.23;37.97;;;;;;;;;;5019178;28;20202;-78
2023/09/02 02:05:37;;;;;;;57.23;36.93;;;;;;;;;;5031579;28;20192;-78
2023/09/02 02:08:06;;;;;;;56.07;37.33;;;;;;;;;;5039551;28;20231;-78
2023/09/02 02:10:33;;;;;;;59.23;37.03;;;;;;;;;;5031044;28;20199;-78
2023/09/02 02:13:01;;;;;;;58.93;37.27;;;;;;;;;;5009492;28;20185;-78
2023/09/02 02:15:27;;;;;;;54.40;37.47;;;;;;;;;;5060786;28;20274;-78
2023/09/02 02:17:53;;;;;;;61.80;38.07;;;;;;;;;;5042474;28;20183;-76
2023/09/02 02:20:21;;;;;;;57.00;36.67;;;;;;;;;;5029764;28;20305;-76
2023/09/02 02:22:47;;;;;;;63.97;36.00;;;;;;;;;;5044603;28;20179;-76
2023/09/02 02:25:13;;;;;;;56.30;36.37;;;;;;;;;;5010361;28;20188;-76
2023/09/02 02:27:39;;;;;;;59.13;36.40;;;;;;;;;;5049881;28;20235;-75
2023/09/02 02:30:05;;;;;;;57.70;34.63;;;;;;;;;;5072770;28;20175;-76
2023/09/02 02:32:31;;;;;;;64.27;35.43;;;;;;;;;;5043695;28;20234;-75
2023/09/02 02:34:57;;;;;;;54.23;36.00;;;;;;;;;;5053610;28;20237;-76
2023/09/02 02:37:23;;;;;;;59.53;37.60;;;;;;;;;;5019436;28;20283;-76
2023/09/02 02:39:49;;;;;;;51.13;36.63;;;;;;;;;;5068056;28;20214;-76
2023/09/02 02:42:15;;;;;;;57.43;36.53;;;;;;;;;;5067290;28;20195;-76
2023/09/02 02:44:41;;;;;;;54.27;35.40;;;;;;;;;;5048934;28;20211;-76
2023/09/02 02:47:07;;;;;;;60.20;36.77;;;;;;;;;;5019344;28;20218;-76
2023/09/02 02:49:33;;;;;;;56.13;36.17;;;;;;;;;;5019157;28;20188;-75
2023/09/02 02:52:01;;;;;;;57.67;35.67;;;;;;;;;;5035592;28;20192;-75
2023/09/02 02:54:27;;;;;;;53.20;35.73;;;;;;;;;;5035523;28;20183;-75
2023/09/02 02:56:54;;;;;;;56.57;36.27;;;;;;;;;;5019096;28;20200;-76
2023/09/02 02:59:20;;;;;;;60.03;35.77;;;;;;;;;;5035715;28;20187;-76
2023/09/02 03:01:46;;;;;;;59.10;36.10;;;;;;;;;;5036057;28;20199;-76
2023/09/02 03:04:13;;;;;;;62.57;36.90;;;;;;;;;;5035526;28;20205;-76
2023/09/02 03:06:39;;;;;;;77.93;40.00;;;;;;;;;;5024646;28;20284;-76
2023/09/02 03:09:06;;;;;;;76.03;40.80;;;;;;;;;;5057553;28;20180;-76
2023/09/02 03:11:32;;;;;;;72.33;39.77;;;;;;;;;;5035379;28;20224;-76
2023/09/02 03:13:59;;;;;;;75.73;40.20;;;;;;;;;;5035469;28;20181;-76
2023/09/02 03:16:25;;;;;;;77.27;40.80;;;;;;;;;;5035874;28;20195;-76
2023/09/02 03:18:51;;;;;;;87.17;42.73;;;;;;;;;;5052925;28;20176;-76
2023/09/02 03:21:17;;;;;;;89.43;43.20;;;;;;;;;;5035396;28;20234;-76
2023/09/02 03:23:43;;;;;;;101.47;44.77;;;;;;;;;;5053554;28;20184;-76
2023/09/02 03:26:16;;;;;;;97.80;44.37;;;;;;;;;;5018837;28;20216;-76
2023/09/02 03:28:42;;;;;;;118.10;46.23;;;;;;;;;;5039327;28;20187;-76
2023/09/02 03:31:09;;;;;;;136.73;48.57;;;;;;;;;;5039000;28;20218;-76
2023/09/02 03:33:36;;;;;;;116.23;47.93;;;;;;;;;;5056711;28;20188;-76
2023/09/02 03:36:02;;;;;;;137.03;47.93;;;;;;;;;;5056610;28;20180;-76
2023/09/02 03:38:29;;;;;;;152.17;50.40;;;;;;;;;;5016534;28;20222;-76
2023/09/02 03:40:55;;;;;;;114.50;47.50;;;;;;;;;;5031658;28;20279;-78
2023/09/02 03:43:21;;;;;;;124.47;48.33;;;;;;;;;;5039557;28;20183;-78
2023/09/02 03:45:48;;;;;;;157.60;51.63;;;;;;;;;;5022990;28;20192;-78
2023/09/02 03:48:18;;;;;;;159.83;51.47;;;;;;;;;;5056280;28;20180;-78
2023/09/02 03:51:05;;;;;;;184.67;52.80;;;;;;;;;;5039468;28;20180;-79
2023/09/02 03:53:31;;;;;;;182.37;52.00;;;;;;;;;;5036635;28;20205;-79
2023/09/02 03:55:58;;;;;;;223.30;51.30;;;;;;;;;;5052808;28;20183;-76
2023/09/02 03:58:24;;;;;;;171.27;49.80;;;;;;;;;;5021983;28;20192;-75
2023/09/02 04:00:50;;;;;;;180.00;51.57;;;;;;;;;;5022188;28;20194;-75
2023/09/02 04:03:19;;;;;;;171.77;50.90;;;;;;;;;;5062468;28;20266;-75
2023/09/02 04:05:45;;;;;;;203.23;54.63;;;;;;;;;;5021739;28;20195;-75
2023/09/02 04:08:11;;;;;;;173.73;52.80;;;;;;;;;;5057677;28;20188;-79
2023/09/02 04:10:37;;;;;;;252.57;59.40;;;;;;;;;;5022239;28;20192;-78
2023/09/02 04:13:03;;;;;;;125.37;48.23;;;;;;;;;;5038957;28;20186;-76
2023/09/02 04:15:29;;;;;;;163.73;51.53;;;;;;;;;;5059015;28;20183;-77
2023/09/02 04:17:55;;;;;;;202.93;56.53;;;;;;;;;;5037876;28;20196;-76
2023/09/02 04:20:22;;;;;;;169.90;51.97;;;;;;;;;;5038694;28;20187;-76
2023/09/02 04:22:47;;;;;;;208.00;54.80;;;;;;;;;;5038180;28;20192;-76
2023/09/02 04:25:15;;;;;;;199.13;54.77;;;;;;;;;;5021641;28;20199;-76
2023/09/02 04:27:41;;;;;;;142.30;49.70;;;;;;;;;;5021533;28;20240;-76
2023/09/02 04:30:07;;;;;;;135.87;49.80;;;;;;;;;;5022023;28;20267;-75
2023/09/02 04:32:33;;;;;;;112.97;48.10;;;;;;;;;;5038170;28;20198;-75
2023/09/02 04:34:59;;;;;;;131.97;48.77;;;;;;;;;;5056528;28;20191;-76
2023/09/02 04:37:25;;;;;;;123.73;48.33;;;;;;;;;;5031985;28;20198;-75
2023/09/02 04:39:51;;;;;;;121.03;49.10;;;;;;;;;;5020656;28;20196;-75
2023/09/02 04:42:17;;;;;;;143.07;49.87;;;;;;;;;;5037515;28;20245;-76
2023/09/02 04:44:43;;;;;;;111.40;47.07;;;;;;;;;;5038450;28;20184;-75
2023/09/02 04:47:10;;;;;;;110.70;46.53;;;;;;;;;;5037620;28;20253;-75
2023/09/02 04:49:36;;;;;;;126.53;48.47;;;;;;;;;;5053615;28;20187;-76
2023/09/02 04:52:03;;;;;;;159.43;49.80;;;;;;;;;;5055120;28;20179;-75
2023/09/02 04:54:29;;;;;;;103.93;46.17;;;;;;;;;;5037854;28;20278;-76
2023/09/02 04:56:55;;;;;;;92.33;45.53;;;;;;;;;;5037270;28;20192;-75
2023/09/02 04:59:21;;;;;;;98.07;44.77;;;;;;;;;;5033453;28;20180;-75
2023/09/02 05:01:47;;;;;;;80.43;42.33;;;;;;;;;;5043973;28;20195;-76
2023/09/02 05:04:13;;;;;;;110.87;45.97;;;;;;;;;;5024998;28;20184;-76
2023/09/02 05:06:39;;;;;;;91.17;43.40;;;;;;;;;;5021006;28;20232;-75
2023/09/02 05:09:06;;;;;;;78.67;42.13;;;;;;;;;;5036604;28;20180;-76
2023/09/02 05:11:32;;;;;;;81.53;41.80;;;;;;;;;;5050193;28;20191;-76
2023/09/02 05:13:58;;;;;;;117.17;48.53;;;;;;;;;;5028376;28;20187;-76
2023/09/02 05:16:24;;;;;;;118.33;49.03;;;;;;;;;;5038043;28;20194;-76
2023/09/02 05:18:50;;;;;;;109.00;48.30;;;;;;;;;;5020546;28;20206;-76
2023/09/02 05:21:16;;;;;;;126.13;51.20;;;;;;;;;;5021421;28;20184;-79
2023/09/02 05:23:42;;;;;;;127.87;49.60;;;;;;;;;;5017561;28;20184;-78
2023/09/02 05:26:08;;;;;;;136.67;50.13;;;;;;;;;;5017007;28;20218;-77
2023/09/02 05:28:34;;;;;;;116.87;48.67;;;;;;;;;;5036612;28;20302;-79
2023/09/02 05:31:00;;;;;;;143.63;51.00;;;;;;;;;;5020837;28;20274;-78
2023/09/02 05:33:26;;;;;;;127.53;49.57;;;;;;;;;;5032787;28;20263;-78
2023/09/02 05:35:55;;;;;;;142.23;50.07;;;;;;;;;;5033682;28;20177;-76
2023/09/02 05:38:21;;;;;;;113.17;49.13;;;;;;;;;;5018698;28;20214;-76
2023/09/02 05:40:47;;;;;;;135.80;51.33;;;;;;;;;;5034315;28;20184;-76
2023/09/02 05:43:13;;;;;;;146.23;52.03;;;;;;;;;;5042793;28;20165;-76
2023/09/02 05:45:39;;;;;;;125.93;48.20;;;;;;;;;;5034269;28;20176;-76
2023/09/02 05:48:06;;;;;;;114.43;48.37;;;;;;;;;;5017614;28;20263;-76
2023/09/02 05:50:32;;;;;;;122.10;48.63;;;;;;;;;;5044681;28;20180;-76
2023/09/02 05:52:58;;;;;;;119.77;47.53;;;;;;;;;;5035169;28;20195;-75
2023/09/02 05:55:24;;;;;;;86.97;45.90;;;;;;;;;;5035035;28;20207;-75
2023/09/02 05:57:50;;;;;;;81.20;43.27;;;;;;;;;;5035910;28;20184;-75
2023/09/02 06:00:16;;;;;;;88.87;44.70;;;;;;;;;;5034157;28;20184;-75
2023/09/02 06:02:42;;;;;;;86.00;44.57;;;;;;;;;;5034483;28;20176;-75
2023/09/02 06:05:08;;;;;;;91.30;43.53;;;;;;;;;;5016911;28;20188;-75
2023/09/02 06:07:34;;;;;;;78.27;42.67;;;;;;;;;;5033390;28;20234;-75
2023/09/02 06:10:00;;;;;;;91.13;42.70;;;;;;;;;;5034655;28;20178;-76
2023/09/02 06:12:26;;;;;;;78.80;41.73;;;;;;;;;;5035205;28;20267;-76
2023/09/02 06:14:52;;;;;;;86.77;42.27;;;;;;;;;;5016808;28;20180;-76
2023/09/02 06:17:18;;;;;;;88.37;42.97;;;;;;;;;;5019289;28;20184;-76
2023/09/02 06:19:44;;;;;;;76.43;42.60;;;;;;;;;;5019943;28;20215;-76
2023/09/02 06:22:11;;;;;;;78.03;41.67;;;;;;;;;;5047833;28;20187;-76
2023/09/02 06:24:37;;;;;;;85.80;43.37;;;;;;;;;;5033692;28;20232;-77
2023/09/02 06:27:03;;;;;;;66.50;40.03;;;;;;;;;;5038524;28;20235;-77
2023/09/02 06:29:32;;;;;;;60.57;39.00;;;;;;;;;;5018996;28;20268;-75
2023/09/02 06:32:01;;;;;;;66.87;39.17;;;;;;;;;;5036208;28;20234;-75
2023/09/02 06:34:28;;;;;;;67.67;40.30;;;;;;;;;;5001151;28;20279;-76
2023/09/02 06:36:54;;;;;;;58.93;38.13;;;;;;;;;;5032880;28;20184;-75
2023/09/02 06:39:20;;;;;;;51.77;36.30;;;;;;;;;;5020903;28;20194;-75
2023/09/02 06:41:46;;;;;;;44.50;34.40;;;;;;;;;;5036130;28;20188;-75
2023/09/02 06:44:12;;;;;;;48.17;34.27;;;;;;;;;;5035383;28;20257;-76
2023/09/02 06:46:41;;;;;;;44.67;34.50;;;;;;;;;;5019410;28;20215;-76
2023/09/02 06:49:08;;;;;;;50.80;35.80;;;;;;;;;;5020090;28;20186;-77
2023/09/02 06:51:34;;;;;;;45.70;34.20;;;;;;;;;;5053792;28;20183;-79
2023/09/02 06:54:00;;;;;;;46.50;35.07;;;;;;;;;;5032576;28;20181;-79
2023/09/02 06:56:26;;;;;;;45.60;33.33;;;;;;;;;;5016135;28;20185;-79
2023/09/02 06:58:52;;;;;;;40.27;30.77;;;;;;;;;;5020042;28;20271;-76
2023/09/02 07:01:21;;;;;;;39.17;31.07;;;;;;;;;;5054271;28;20230;-76
2023/09/02 07:03:48;;;;;;;41.13;31.87;;;;;;;;;;5057634;28;20175;-76
2023/09/02 07:06:15;;;;;;;40.63;32.00;;;;;;;;;;5040041;28;20345;-76
2023/09/02 07:08:42;;;;;;;36.23;30.60;;;;;;;;;;5039034;28;20187;-76
2023/09/02 07:11:09;;;;;;;41.27;31.27;;;;;;;;;;5039509;28;20202;-76
2023/09/02 07:13:36;;;;;;;38.50;31.07;;;;;;;;;;5039720;28;20192;-76
2023/09/02 07:16:03;;;;;;;39.73;30.90;;;;;;;;;;5023306;28;20187;-79
2023/09/02 07:18:29;;;;;;;38.03;31.37;;;;;;;;;;5057261;28;20180;-79
2023/09/02 07:20:59;;;;;;;43.47;32.10;;;;;;;;;;5039918;28;20275;-79
2023/09/02 07:23:25;;;;;;;40.00;31.67;;;;;;;;;;5039623;28;20190;-76
2023/09/02 07:25:51;;;;;;;38.97;30.33;;;;;;;;;;5039073;28;20258;-76
2023/09/02 07:28:17;;;;;;;43.03;31.17;;;;;;;;;;5055969;28;20246;-76
2023/09/02 07:30:43;;;;;;;39.13;31.40;;;;;;;;;;5057093;28;20179;-76
2023/09/02 07:33:09;;;;;;;38.77;30.90;;;;;;;;;;5055894;28;20239;-79
2023/09/02 07:35:37;;;;;;;36.97;29.03;;;;;;;;;;5022735;28;20188;-79
2023/09/02 07:38:07;;;;;;;37.37;29.27;;;;;;;;;;5038477;28;20209;-76
2023/09/02 07:43:02;;;;;;;37.63;29.00;;;;;;;;;;5073758;28;20306;-77
2023/09/02 07:45:28;;;;;;;37.90;29.53;;;;;;;;;;5058735;28;20232;-79
2023/09/02 07:47:55;;;;;;;37.93;29.67;;;;;;;;;;5076479;28;20203;-76
2023/09/02 07:50:21;;;;;;;39.57;29.20;;;;;;;;;;5058706;28;20182;-77
2023/09/02 07:52:48;;;;;;;40.73;29.53;;;;;;;;;;5052066;28;20210;-77
2023/09/02 07:55:14;;;;;;;37.47;29.10;;;;;;;;;;5071452;28;20175;-78
2023/09/02 07:57:40;;;;;;;35.00;27.77;;;;;;;;;;5041655;28;20275;-76
2023/09/02 08:00:06;;;;;;;35.93;28.43;;;;;;;;;;5058301;28;20262;-76
2023/09/02 08:02:32;;;;;;;36.30;27.90;;;;;;;;;;5058270;28;20268;-76
2023/09/02 08:04:58;;;;;;;35.67;28.40;;;;;;;;;;5041475;28;20183;-76
2023/09/02 08:07:24;;;;;;;32.93;25.83;;;;;;;;;;5075980;28;20293;-77
2023/09/02 08:09:50;;;;;;;32.83;25.10;;;;;;;;;;5072540;28;20176;-77
2023/09/02 08:12:17;;;;;;;29.40;24.03;;;;;;;;;;5067106;28;20175;-77
2023/09/02 08:14:43;;;;;;;27.90;23.23;;;;;;;;;;5065585;28;20183;-77
2023/09/02 08:17:09;;;;;;;27.97;23.37;;;;;;;;;;5037668;28;20267;-77
2023/09/02 08:19:35;;;;;;;29.00;23.53;;;;;;;;;;5061985;28;20197;-78
2023/09/02 08:22:01;;;;;;;32.23;23.93;;;;;;;;;;5071885;28;20183;-78
2023/09/02 08:24:27;;;;;;;30.20;23.53;;;;;;;;;;5057988;28;20188;-79
2023/09/02 08:26:53;;;;;;;28.33;22.07;;;;;;;;;;5058022;28;20216;-80
2023/09/02 08:29:19;;;;;;;25.43;21.53;;;;;;;;;;5062774;28;20182;-79
2023/09/02 08:31:45;;;;;;;28.53;22.53;;;;;;;;;;5076274;28;20190;-78
2023/09/02 08:34:11;;;;;;;31.53;22.53;;;;;;;;;;5058974;28;20191;-78
2023/09/02 08:36:37;;;;;;;33.33;24.27;;;;;;;;;;5055569;28;20196;-78
2023/09/02 08:39:03;;;;;;;28.70;23.70;;;;;;;;;;5054478;28;20207;-79
2023/09/02 08:41:35;;;;;;;31.43;24.17;;;;;;;;;;5055109;28;20234;-79
2023/09/02 08:44:02;;;;;;;31.27;23.37;;;;;;;;;;5054338;28;20231;-77
2023/09/02 08:46:31;;;;;;;31.37;24.07;;;;;;;;;;5053934;28;20211;-76
2023/09/02 08:48:57;;;;;;;30.00;23.77;;;;;;;;;;5052416;28;20186;-76
2023/09/02 08:51:24;;;;;;;28.67;22.30;;;;;;;;;;5054145;28;20227;-76
2023/09/02 08:53:51;;;;;;;28.63;21.23;;;;;;;;;;5054199;28;20179;-78
2023/09/02 08:56:17;;;;;;;28.30;22.60;;;;;;;;;;5056797;28;20186;-78
2023/09/02 08:58:43;;;;;;;28.43;21.93;;;;;;;;;;5095398;28;20185;-78
2023/09/02 09:01:10;;;;;;;25.40;21.77;;;;;;;;;;5077511;28;20192;-78
2023/09/02 09:03:38;;;;;;;25.97;20.77;;;;;;;;;;5077443;28;20190;-78
2023/09/02 09:06:06;;;;;;;22.40;19.77;;;;;;;;;;5077007;28;20183;-78
2023/09/02 09:08:32;;;;;;;23.53;20.40;;;;;;;;;;5093540;28;20194;-78
2023/09/02 09:10:58;;;;;;;22.73;19.80;;;;;;;;;;5060734;28;20190;-79
2023/09/02 09:13:26;;;;;;;26.27;20.40;;;;;;;;;;5060866;28;20178;-77
2023/09/02 09:15:53;;;;;;;25.73;22.05;;;;;;;;;;5067480;28;20437;-76
2023/09/02 09:18:19;;;;;;;24.40;21.90;;;;;;;;;;5073951;28;20487;-76
2023/09/02 09:20:45;;;;;;;24.90;22.20;;;;;;;;;;5039580;28;20409;-77
2023/09/02 09:23:11;;;;;;;23.97;21.50;;;;;;;;;;5039695;28;20414;-76
2023/09/02 09:25:37;;;;;;;24.00;21.60;;;;;;;;;;5055214;28;20417;-77
2023/09/02 09:28:07;;;;;;;23.98;21.45;;;;;;;;;;5039107;28;20430;-76
2023/09/02 09:30:33;;;;;;;23.48;21.17;;;;;;;;;;5073477;28;20398;-75
2023/09/02 09:33:05;;;;;;;22.92;20.65;;;;;;;;;;5039380;28;20421;-75
2023/09/02 09:35:31;;;;;;;22.98;20.60;;;;;;;;;;5037852;28;20421;-75
2023/09/02 09:37:57;;;;;;;21.52;19.45;;;;;;;;;;5035967;28;20454;-75
2023/09/02 09:40:30;;;;;;;24.00;21.60;;;;;;;;;;5050910;28;20411;-75
2023/09/02 09:42:56;;;;;;;24.15;21.65;;;;;;;;;;5052226;28;20446;-75
2023/09/02 09:45:22;;;;;;;24.37;21.90;;;;;;;;;;5052583;28;20431;-75
2023/09/02 09:47:48;;;;;;;23.70;21.20;;;;;;;;;;5033955;28;20493;-75
2023/09/02 09:50:15;;;;;;;23.70;21.30;;;;;;;;;;5034588;28;20406;-75
2023/09/02 09:52:47;;;;;;;23.95;21.42;;;;;;;;;;5053181;28;20434;-75
2023/09/02 09:55:24;;;;;;;23.80;21.40;;;;;;;;;;5057766;28;20433;-75
2023/09/02 09:57:52;;;;;;;22.52;20.40;;;;;;;;;;5053953;28;20429;-75
2023/09/02 10:00:18;;;;;;;24.10;21.77;;;;;;;;;;5064596;28;20566;-75
2023/09/02 10:02:50;;;;;;;23.63;21.27;;;;;;;;;;5040163;28;20516;-75
2023/09/02 10:05:23;;;;;;;23.95;21.48;;;;;;;;;;5073030;28;20491;-75
2023/09/02 10:07:57;;;;;;;22.90;20.60;;;;;;;;;;5055011;28;20552;-76
2023/09/02 10:10:30;;;;;;;22.23;20.17;;;;;;;;;;5055116;28;20493;-76
2023/09/02 10:12:57;;;;;;;22.40;20.20;;;;;;;;;;5054205;28;20430;-76
2023/09/02 10:15:27;;;;;;;21.07;18.97;;;;;;;;;;5073418;28;20425;-76
2023/09/02 10:18:03;;;;;;;20.70;18.75;;;;;;;;;;5054702;28;20480;-76
2023/09/02 10:20:30;;;;;;;19.55;17.58;;;;;;;;;;5072900;28;20466;-77
2023/09/02 10:23:06;;;;;;;20.27;18.27;;;;;;;;;;5072231;28;20407;-77
2023/09/02 10:25:35;;;;;;;20.25;18.33;;;;;;;;;;5055302;28;20459;-76
2023/09/02 10:28:05;;;;;;;20.00;18.00;;;;;;;;;;5071436;28;20515;-76
2023/09/02 10:30:44;;;;;;;19.75;17.95;;;;;;;;;;5055168;28;20410;-76
2023/09/02 10:33:31;;;;;;;18.35;16.63;;;;;;;;;;5072672;28;20398;-76
2023/09/02 10:35:59;;;;;;;17.70;16.10;;;;;;;;;;5054869;28;20398;-78
2023/09/02 10:38:27;;;;;;;18.60;16.90;;;;;;;;;;5064520;28;20471;-78
2023/09/02 10:41:01;;;;;;;18.40;16.80;;;;;;;;;;5055516;28;20426;-78
2023/09/02 10:43:27;;;;;;;19.25;17.45;;;;;;;;;;5052438;28;20456;-78
2023/09/02 10:45:53;;;;;;;19.88;17.98;;;;;;;;;;5036139;28;20448;-78
2023/09/02 10:48:20;;;;;;;20.85;18.83;;;;;;;;;;5052567;28;20401;-75
2023/09/02 10:50:46;;;;;;;20.67;18.67;;;;;;;;;;5036644;28;20401;-75
2023/09/02 10:53:12;;;;;;;20.30;18.40;;;;;;;;;;5050904;28;20412;-78
2023/09/02 10:55:56;;;;;;;20.27;18.40;;;;;;;;;;5039344;28;20419;-78
2023/09/02 10:58:23;;;;;;;19.30;17.43;;;;;;;;;;5058860;28;20437;-78
2023/09/02 11:00:49;;;;;;;20.67;18.67;;;;;;;;;;5066507;28;20470;-79
2023/09/02 11:03:34;;;;;;;20.58;18.67;;;;;;;;;;5060927;28;20501;-78
2023/09/02 11:06:05;;;;;;;19.40;17.63;;;;;;;;;;5035337;28;20446;-78
2023/09/02 11:08:41;;;;;;;19.00;17.30;;;;;;;;;;5019110;28;20494;-78
2023/09/02 11:11:07;;;;;;;19.60;17.80;;;;;;;;;;5035655;28;20471;-78
2023/09/02 11:13:33;;;;;;;19.43;17.67;;;;;;;;;;5018871;28;20409;-77
2023/09/02 11:16:15;;;;;;;19.63;17.80;;;;;;;;;;5036706;28;20409;-77
2023/09/02 11:18:41;;;;;;;19.90;18.05;;;;;;;;;;5054872;28;20415;-77
2023/09/02 11:21:07;;;;;;;19.50;17.70;;;;;;;;;;5038660;28;20416;-77
2023/09/02 11:23:35;;;;;;;20.60;18.80;;;;;;;;;;5054955;28;20404;-77
2023/09/02 11:26:02;;;;;;;20.93;18.93;;;;;;;;;;5053725;28;20408;-76
2023/09/02 11:28:30;;;;;;;18.83;17.23;;;;;;;;;;5052692;28;20469;-79
2023/09/02 11:31:09;;;;;;;20.80;18.80;;;;;;;;;;5053117;28;20408;-79
2023/09/02 11:33:36;;;;;;;20.95;19.15;;;;;;;;;;5053216;28;20404;-79
2023/09/02 11:36:05;;;;;;;19.92;18.13;;;;;;;;;;5055170;28;20415;-79
2023/09/02 11:38:32;;;;;;;19.10;17.40;;;;;;;;;;5054566;28;20408;-77
2023/09/02 11:40:58;;;;;;;19.10;17.40;;;;;;;;;;5054898;28;20454;-77
2023/09/02 11:43:28;;;;;;;18.70;16.80;;;;;;;;;;5038082;28;20428;-76
2023/09/02 11:45:54;;;;;;;18.45;16.65;;;;;;;;;;5055591;28;20456;-76
2023/09/02 11:48:20;;;;;;;18.50;16.88;;;;;;;;;;5036708;28;20474;-76
2023/09/02 11:50:46;;;;;;;17.77;15.98;;;;;;;;;;5054584;28;20436;-76
2023/09/02 11:53:12;;;;;;;16.95;15.23;;;;;;;;;;5033532;28;20418;-76
2023/09/02 11:55:39;;;;;;;16.67;15.15;;;;;;;;;;5018243;28;20444;-76
2023/09/02 11:58:10;;;;;;;16.02;14.52;;;;;;;;;;5018822;28;20421;-76
2023/09/02 12:00:41;;;;;;;17.45;15.75;;;;;;;;;;5019333;28;20427;-77
2023/09/02 12:03:07;;;;;;;20.33;18.30;;;;;;;;;;5034318;28;20418;-78
2023/09/02 12:05:36;;;;;;;23.73;21.33;;;;;;;;;;5034666;28;20485;-78
2023/09/02 12:08:02;;;;;;;24.10;21.58;;;;;;;;;;5033976;28;20502;-78
2023/09/02 12:10:29;;;;;;;22.83;20.52;;;;;;;;;;5034924;28;20415;-78
2023/09/02 12:12:56;;;;;;;22.52;20.27;;;;;;;;;;5034255;28;20433;-78
2023/09/02 12:15:22;;;;;;;22.40;20.13;;;;;;;;;;5034194;28;20402;-78
2023/09/02 12:17:48;;;;;;;22.50;20.30;;;;;;;;;;5034108;28;20497;-76
2023/09/02 12:20:15;;;;;;;22.80;20.60;;;;;;;;;;5034247;28;20479;-76
2023/09/02 12:22:43;;;;;;;23.00;20.70;;;;;;;;;;5045399;28;20498;-76
2023/09/02 12:25:22;;;;;;;22.30;20.20;;;;;;;;;;5053339;28;20477;-76
2023/09/02 12:27:49;;;;;;;22.38;20.13;;;;;;;;;;5045566;28;20484;-76
2023/09/02 12:30:25;;;;;;;21.52;19.42;;;;;;;;;;5057318;28;20471;-77
2023/09/02 12:32:51;;;;;;;22.75;20.65;;;;;;;;;;5062654;28;20461;-76
2023/09/02 12:35:17;;;;;;;22.20;19.93;;;;;;;;;;5036377;28;20499;-76
2023/09/02 12:37:43;;;;;;;20.15;18.08;;;;;;;;;;5036726;28;20446;-76
2023/09/02 12:40:10;;;;;;;18.73;16.80;;;;;;;;;;5035385;28;20181;-76
2023/09/02 12:42:36;;;;;;;18.30;16.50;;;;;;;;;;5066356;28;20441;-76
2023/09/02 12:45:06;;;;;;;18.13;16.33;;;;;;;;;;5047290;28;20172;-76
2023/09/02 12:47:32;;;;;;;16.10;14.40;;;;;;;;;;5053968;28;20260;-76
2023/09/02 12:50:01;;;;;;;16.35;14.65;;;;;;;;;;5062064;28;20179;-77
2023/09/02 12:52:28;;;;;;;17.00;15.40;;;;;;;;;;5054311;28;20482;-77
2023/09/02 12:54:55;;;;;;;18.67;16.67;;;;;;;;;;5070056;28;20443;-77
2023/09/02 12:57:22;;;;;;;18.30;16.50;;;;;;;;;;5054203;28;20396;-77
2023/09/02 12:59:48;;;;;;;17.65;15.95;;;;;;;;;;5053028;28;20415;-78
2023/09/02 13:02:14;;;;;;;16.13;14.52;;;;;;;;;;5070722;28;20180;-78
2023/09/02 13:04:40;;;;;;;16.25;14.35;;;;;;;;;;5070487;28;20191;-77
2023/09/02 13:07:06;;;;;;;17.50;15.70;;;;;;;;;;5054378;28;20203;-76
2023/09/02 13:09:32;;;;;;;17.83;16.02;;;;;;;;;;5054912;28;20218;-76
2023/09/02 13:11:58;;;;;;;19.30;17.42;;;;;;;;;;5054181;28;20396;-76
2023/09/02 13:14:26;;;;;;;19.23;17.33;;;;;;;;;;5069614;28;20410;-76
2023/09/02 13:16:53;;;;;;;18.30;14.82;;;;;;;;;;5070714;28;20180;-76
2023/09/02 13:19:19;;;;;;;17.25;15.65;;;;;;;;;;5052904;28;20565;-76
2023/09/02 13:21:45;;;;;;;16.15;14.45;;;;;;;;;;5044931;28;20188;-76
2023/09/02 13:24:16;;;;;;;15.63;14.10;;;;;;;;;;5033641;28;20185;-76
2023/09/02 13:26:45;;;;;;;17.38;15.68;;;;;;;;;;5032637;28;20429;-76
2023/09/02 13:29:12;;;;;;;16.70;15.00;;;;;;;;;;5017364;28;20180;-76
2023/09/02 13:31:39;;;;;;;15.73;14.18;;;;;;;;;;5017274;28;20065;-76
2023/09/02 13:34:06;;;;;;;16.65;15.05;;;;;;;;;;5032446;28;20417;-76
2023/09/02 13:36:32;;;;;;;16.23;14.70;;;;;;;;;;5032497;28;20409;-76
2023/09/02 13:38:59;;;;;;;14.77;13.13;;;;;;;;;;5034595;28;20306;-76
2023/09/02 13:41:25;;;;;;;14.05;12.63;;;;;;;;;;5041181;28;20233;-76
2023/09/02 13:43:51;;;;;;;14.50;13.10;;;;;;;;;;5068679;28;20231;-76
2023/09/02 13:46:17;;;;;;;12.95;11.55;;;;;;;;;;5073535;28;20199;-76
2023/09/02 13:48:44;;;;;;;13.02;11.75;;;;;;;;;;5040359;28;20175;-76
2023/09/02 13:51:13;;;;;;;11.98;10.77;;;;;;;;;;5058311;28;20404;-76
2023/09/02 13:53:39;;;;;;;12.68;11.48;;;;;;;;;;5052663;28;20462;-76
2023/09/02 13:56:05;;;;;;;13.70;12.27;;;;;;;;;;5045049;28;20186;-76
2023/09/02 13:58:35;;;;;;;16.70;15.20;;;;;;;;;;5039866;28;20398;-76
2023/09/02 14:01:01;;;;;;;16.42;14.75;;;;;;;;;;5055596;28;20402;-76
2023/09/02 14:03:28;;;;;;;15.68;14.20;;;;;;;;;;5072757;28;20422;-76
2023/09/02 14:05:55;;;;;;;15.88;14.38;;;;;;;;;;5042853;28;20428;-76
2023/09/02 14:08:33;;;;;;;16.70;15.20;;;;;;;;;;5073123;28;20434;-76
2023/09/02 14:10:59;;;;;;;16.53;14.93;;;;;;;;;;5054104;28;20485;-76
2023/09/02 14:13:25;;;;;;;16.17;14.67;;;;;;;;;;5050116;28;20425;-76
2023/09/02 14:15:52;;;;;;;16.05;14.65;;;;;;;;;;5072555;28;20440;-76
2023/09/02 14:18:18;;;;;;;16.63;15.13;;;;;;;;;;5072736;28;20444;-76